createdAt,value
2018-06-13T00:00:42.310Z,0
2018-06-13T00:01:42.978Z,0
2018-06-13T00:02:43.647Z,0
2018-06-13T00:03:44.315Z,0
2018-06-13T00:04:44.984Z,0
2018-06-13T00:05:45.653Z,0
2018-06-13T00:06:46.321Z,0
2018-06-13T00:07:46.994Z,0
2018-06-13T00:08:47.657Z,0
2018-06-13T00:09:48.324Z,0
2018-06-13T00:10:48.992Z,0
2018-06-13T00:11:49.697Z,0
2018-06-13T00:12:50.364Z,0
2018-06-13T00:13:51.032Z,0
2018-06-13T00:14:51.698Z,0
2018-06-13T00:15:52.367Z,0
2018-06-13T00:16:53.035Z,0
2018-06-13T00:17:53.703Z,0
2018-06-13T00:18:54.374Z,0
2018-06-13T00:19:55.042Z,0
2018-06-13T00:20:55.712Z,0
2018-06-13T00:21:56.379Z,0
2018-06-13T00:22:57.048Z,0
2018-06-13T00:23:57.716Z,0
2018-06-13T00:24:58.384Z,0
2018-06-13T00:25:59.053Z,0
2018-06-13T00:26:59.722Z,0
2018-06-13T00:28:00.391Z,0
2018-06-13T00:29:01.061Z,0
2018-06-13T00:30:01.727Z,0
2018-06-13T00:31:02.394Z,0
2018-06-13T00:32:03.063Z,0
2018-06-13T00:33:03.730Z,0
2018-06-13T00:34:04.404Z,0
2018-06-13T00:35:05.111Z,0
2018-06-13T00:36:05.811Z,0
2018-06-13T00:37:06.492Z,0
2018-06-13T00:38:07.147Z,0
2018-06-13T00:39:07.814Z,0
2018-06-13T00:40:08.483Z,0
2018-06-13T00:41:09.156Z,0
2018-06-13T00:42:09.861Z,0
2018-06-13T00:43:10.532Z,0
2018-06-13T00:44:11.200Z,0
2018-06-13T00:45:11.867Z,0
2018-06-13T00:46:12.560Z,0
2018-06-13T00:47:13.204Z,0
2018-06-13T00:48:13.872Z,0
2018-06-13T00:49:14.541Z,0
2018-06-13T00:50:15.262Z,0
2018-06-13T00:51:15.926Z,0
2018-06-13T00:52:16.594Z,0
2018-06-13T00:53:17.262Z,0
2018-06-13T00:54:17.929Z,0
2018-06-13T00:55:18.598Z,0
2018-06-13T00:56:19.266Z,0
2018-06-13T00:57:19.970Z,0
2018-06-13T00:58:20.637Z,0
2018-06-13T00:59:21.305Z,0
2018-06-13T01:00:21.974Z,0
2018-06-13T01:01:22.643Z,0
2018-06-13T01:02:23.314Z,0
2018-06-13T01:03:23.983Z,0
2018-06-13T01:04:24.650Z,0
2018-06-13T01:05:25.318Z,0
2018-06-13T01:06:25.985Z,0
2018-06-13T01:07:26.653Z,0
2018-06-13T01:08:27.323Z,0
2018-06-13T01:09:27.992Z,0
2018-06-13T01:10:28.661Z,0
2018-06-13T01:11:29.329Z,0
2018-06-13T01:12:29.999Z,0
2018-06-13T01:13:30.663Z,0
2018-06-13T01:14:31.333Z,0
2018-06-13T01:15:32.038Z,0
2018-06-13T01:16:32.706Z,0
2018-06-13T01:17:33.373Z,0
2018-06-13T01:18:34.041Z,0
2018-06-13T01:19:34.708Z,0
2018-06-13T01:20:35.377Z,0
2018-06-13T01:21:36.048Z,0
2018-06-13T01:22:36.718Z,0
2018-06-13T01:23:37.388Z,0
2018-06-13T01:24:38.055Z,0
2018-06-13T01:25:38.723Z,0
2018-06-13T01:26:39.390Z,0
2018-06-13T01:27:40.057Z,0
2018-06-13T01:28:40.735Z,0
2018-06-13T01:29:41.396Z,0
2018-06-13T01:30:42.064Z,0
2018-06-13T01:31:42.733Z,0
2018-06-13T01:32:43.402Z,0
2018-06-13T01:33:44.069Z,0
2018-06-13T01:34:44.741Z,0
2018-06-13T01:35:45.404Z,0
2018-06-13T01:36:46.072Z,0
2018-06-13T01:37:46.739Z,0
2018-06-13T01:38:47.445Z,0
2018-06-13T01:39:48.112Z,0
2018-06-13T01:40:48.780Z,0
2018-06-13T01:41:49.448Z,0
2018-06-13T01:42:50.119Z,0
2018-06-13T01:43:50.788Z,0
2018-06-13T01:44:51.458Z,0
2018-06-13T01:45:52.124Z,0
2018-06-13T01:46:52.791Z,0
2018-06-13T01:47:53.462Z,0
2018-06-13T01:48:54.165Z,0
2018-06-13T01:49:54.833Z,0
2018-06-13T01:50:55.499Z,0
2018-06-13T01:51:56.166Z,0
2018-06-13T01:52:56.834Z,0
2018-06-13T01:53:57.505Z,0
2018-06-13T01:54:58.209Z,0
2018-06-13T01:55:58.880Z,0
2018-06-13T01:56:59.582Z,0
2018-06-13T01:58:00.250Z,0
2018-06-13T01:59:00.919Z,0
2018-06-13T02:00:01.591Z,0
2018-06-13T02:01:02.257Z,0
2018-06-13T02:02:02.926Z,0
2018-06-13T02:03:03.630Z,0
2018-06-13T02:04:04.298Z,0
2018-06-13T02:05:04.965Z,0
2018-06-13T02:06:05.631Z,0
2018-06-13T02:07:06.299Z,0
2018-06-13T02:08:06.967Z,0
2018-06-13T02:09:07.634Z,0
2018-06-13T02:10:08.300Z,0
2018-06-13T02:11:08.967Z,0
2018-06-13T02:12:09.636Z,0
2018-06-13T02:13:10.306Z,0
2018-06-13T02:14:10.975Z,0
2018-06-13T02:15:11.645Z,0
2018-06-13T02:16:12.313Z,0
2018-06-13T02:17:12.980Z,0
2018-06-13T02:18:13.647Z,0
2018-06-13T02:19:14.314Z,0
2018-06-13T02:20:14.984Z,0
2018-06-13T02:21:15.652Z,0
2018-06-13T02:22:16.321Z,0
2018-06-13T02:23:16.990Z,0
2018-06-13T02:24:17.657Z,0
2018-06-13T02:25:18.326Z,0
2018-06-13T02:26:18.992Z,0
2018-06-13T02:27:19.673Z,0
2018-06-13T02:28:20.329Z,0
2018-06-13T02:29:20.998Z,0
2018-06-13T02:30:21.666Z,0
2018-06-13T02:31:22.337Z,0
2018-06-13T02:32:23.006Z,0
2018-06-13T02:33:23.678Z,0
2018-06-13T02:34:24.339Z,4
2018-06-13T02:35:25.011Z,4
2018-06-13T02:36:25.712Z,4
2018-06-13T02:37:26.380Z,4
2018-06-13T02:38:27.048Z,0
2018-06-13T02:39:27.753Z,0
2018-06-13T02:40:28.421Z,4
2018-06-13T02:41:29.087Z,4
2018-06-13T02:42:29.754Z,4
2018-06-13T02:43:30.423Z,4
2018-06-13T02:44:31.090Z,4
2018-06-13T02:45:31.758Z,4
2018-06-13T02:46:32.428Z,8
2018-06-13T02:47:33.097Z,4
2018-06-13T02:48:33.764Z,4
2018-06-13T02:49:34.433Z,4
2018-06-13T02:50:35.101Z,4
2018-06-13T02:51:35.767Z,8
2018-06-13T02:52:36.437Z,8
2018-06-13T02:53:37.106Z,4
2018-06-13T02:54:37.776Z,8
2018-06-13T02:55:38.444Z,8
2018-06-13T02:56:39.151Z,8
2018-06-13T02:57:39.819Z,12
2018-06-13T02:58:40.487Z,16
2018-06-13T02:59:41.156Z,20
2018-06-13T03:00:41.826Z,20
2018-06-13T03:01:42.497Z,24
2018-06-13T03:02:43.202Z,28
2018-06-13T03:03:43.872Z,28
2018-06-13T03:04:44.540Z,24
2018-06-13T03:05:45.208Z,28
2018-06-13T03:06:45.876Z,32
2018-06-13T03:07:46.545Z,36
2018-06-13T03:08:47.215Z,40
2018-06-13T03:09:47.885Z,48
2018-06-13T03:10:48.555Z,48
2018-06-13T03:11:49.224Z,52
2018-06-13T03:12:49.891Z,56
2018-06-13T03:13:50.561Z,56
2018-06-13T03:14:51.234Z,60
2018-06-13T03:15:51.905Z,52
2018-06-13T03:16:52.607Z,48
2018-06-13T03:17:53.274Z,44
2018-06-13T03:18:53.943Z,44
2018-06-13T03:19:54.612Z,52
2018-06-13T03:20:55.360Z,56
2018-06-13T03:21:55.951Z,60
2018-06-13T03:22:56.621Z,56
2018-06-13T03:23:57.291Z,56
2018-06-13T03:24:57.960Z,56
2018-06-13T03:25:58.629Z,52
2018-06-13T03:26:59.300Z,56
2018-06-13T03:27:59.970Z,52
2018-06-13T03:29:00.675Z,60
2018-06-13T03:30:01.346Z,68
2018-06-13T03:31:02.014Z,76
2018-06-13T03:32:02.720Z,80
2018-06-13T03:33:03.390Z,84
2018-06-13T03:34:04.059Z,88
2018-06-13T03:35:04.727Z,96
2018-06-13T03:36:05.397Z,100
2018-06-13T03:37:06.068Z,104
2018-06-13T03:38:06.739Z,108
2018-06-13T03:39:07.407Z,116
2018-06-13T03:40:08.078Z,120
2018-06-13T03:41:08.803Z,132
2018-06-13T03:42:09.418Z,152
2018-06-13T03:43:10.088Z,168
2018-06-13T03:44:10.757Z,184
2018-06-13T03:45:11.428Z,200
2018-06-13T03:46:12.103Z,212
2018-06-13T03:47:12.770Z,224
2018-06-13T03:48:13.442Z,228
2018-06-13T03:49:14.107Z,232
2018-06-13T03:50:14.777Z,236
2018-06-13T03:51:15.487Z,244
2018-06-13T03:52:16.193Z,252
2018-06-13T03:53:16.864Z,268
2018-06-13T03:54:17.537Z,284
2018-06-13T03:55:18.206Z,288
2018-06-13T03:56:18.878Z,296
2018-06-13T03:57:19.554Z,308
2018-06-13T03:58:20.225Z,328
2018-06-13T03:59:20.900Z,360
2018-06-13T04:00:21.566Z,384
2018-06-13T04:01:22.238Z,388
2018-06-13T04:02:22.946Z,396
2018-06-13T04:03:23.615Z,412
2018-06-13T04:04:24.288Z,416
2018-06-13T04:05:24.960Z,428
2018-06-13T04:06:25.634Z,428
2018-06-13T04:07:26.303Z,428
2018-06-13T04:08:26.975Z,424
2018-06-13T04:09:27.645Z,436
2018-06-13T04:10:28.316Z,464
2018-06-13T04:11:28.991Z,476
2018-06-13T04:12:29.700Z,500
2018-06-13T04:13:30.371Z,548
2018-06-13T04:14:31.041Z,604
2018-06-13T04:15:31.712Z,660
2018-06-13T04:16:32.385Z,696
2018-06-13T04:17:33.055Z,712
2018-06-13T04:18:33.726Z,728
2018-06-13T04:19:34.399Z,744
2018-06-13T04:20:35.071Z,760
2018-06-13T04:21:35.743Z,776
2018-06-13T04:22:36.412Z,808
2018-06-13T04:23:37.083Z,844
2018-06-13T04:24:37.759Z,872
2018-06-13T04:25:38.425Z,888
2018-06-13T04:26:39.097Z,916
2018-06-13T04:27:39.769Z,944
2018-06-13T04:28:40.439Z,988
2018-06-13T04:29:41.113Z,1048
2018-06-13T04:30:41.826Z,1108
2018-06-13T04:31:42.495Z,1172
2018-06-13T04:32:43.183Z,1232
2018-06-13T04:33:43.838Z,1284
2018-06-13T04:34:44.510Z,1332
2018-06-13T04:35:45.199Z,1376
2018-06-13T04:36:45.856Z,1424
2018-06-13T04:37:46.529Z,1480
2018-06-13T04:38:47.199Z,1556
2018-06-13T04:39:47.870Z,1636
2018-06-13T04:40:48.544Z,1724
2018-06-13T04:41:49.217Z,1808
2018-06-13T04:42:49.890Z,1872
2018-06-13T04:43:50.563Z,1924
2018-06-13T04:44:51.234Z,1972
2018-06-13T04:45:51.907Z,2024
2018-06-13T04:46:52.581Z,2072
2018-06-13T04:47:53.253Z,2112
2018-06-13T04:48:53.926Z,2164
2018-06-13T04:49:54.598Z,2260
2018-06-13T04:50:55.269Z,2396
2018-06-13T04:51:55.941Z,2556
2018-06-13T04:52:56.652Z,2700
2018-06-13T04:53:57.326Z,2856
2018-06-13T04:54:57.999Z,2992
2018-06-13T04:55:58.673Z,3108
2018-06-13T04:56:59.346Z,3196
2018-06-13T04:58:00.021Z,3296
2018-06-13T04:59:00.694Z,3412
2018-06-13T05:00:01.372Z,3584
2018-06-13T05:01:02.044Z,3796
2018-06-13T05:02:02.715Z,4028
2018-06-13T05:03:03.389Z,4272
2018-06-13T05:04:04.063Z,4508
2018-06-13T05:05:04.737Z,4732
2018-06-13T05:06:05.412Z,4948
2018-06-13T05:07:06.087Z,5164
2018-06-13T05:08:06.761Z,5312
2018-06-13T05:09:07.434Z,5404
2018-06-13T05:10:08.109Z,5472
2018-06-13T05:11:08.782Z,5500
2018-06-13T05:12:09.457Z,5560
2018-06-13T05:13:10.131Z,5552
2018-06-13T05:14:10.842Z,5432
2018-06-13T05:15:11.515Z,5348
2018-06-13T05:16:12.191Z,5340
2018-06-13T05:17:12.865Z,5340
2018-06-13T05:18:13.539Z,5388
2018-06-13T05:19:14.214Z,5448
2018-06-13T05:20:14.887Z,5476
2018-06-13T05:21:15.564Z,5580
2018-06-13T05:22:16.240Z,5692
2018-06-13T05:23:16.915Z,5840
2018-06-13T05:24:17.590Z,6016
2018-06-13T05:25:18.264Z,6228
2018-06-13T05:26:18.939Z,6440
2018-06-13T05:27:19.615Z,6612
2018-06-13T05:28:20.290Z,6772
2018-06-13T05:29:20.962Z,6892
2018-06-13T05:30:21.641Z,7016
2018-06-13T05:31:22.356Z,7152
2018-06-13T05:32:23.061Z,7276
2018-06-13T05:33:23.737Z,7540
2018-06-13T05:34:24.465Z,7884
2018-06-13T05:35:25.088Z,8248
2018-06-13T05:36:25.766Z,8592
2018-06-13T05:37:26.438Z,8920
2018-06-13T05:38:27.114Z,9244
2018-06-13T05:39:27.789Z,9528
2018-06-13T05:40:28.463Z,9728
2018-06-13T05:41:29.140Z,9764
2018-06-13T05:42:29.813Z,9892
2018-06-13T05:43:30.489Z,10088
2018-06-13T05:44:31.166Z,10232
2018-06-13T05:45:31.844Z,10240
2018-06-13T05:46:32.519Z,10012
2018-06-13T05:47:33.193Z,9856
2018-06-13T05:48:33.919Z,9908
2018-06-13T05:49:34.545Z,9812
2018-06-13T05:50:35.220Z,9940
2018-06-13T05:51:35.896Z,10148
2018-06-13T05:52:36.573Z,10472
2018-06-13T05:53:37.250Z,10208
2018-06-13T05:54:37.927Z,9936
2018-06-13T05:55:38.601Z,9676
2018-06-13T05:56:39.279Z,9208
2018-06-13T05:57:39.954Z,8888
2018-06-13T05:58:40.630Z,8544
2018-06-13T05:59:41.310Z,8204
2018-06-13T06:00:41.989Z,8168
2018-06-13T06:01:42.695Z,7996
2018-06-13T06:02:43.372Z,7960
2018-06-13T06:03:44.048Z,7948
2018-06-13T06:04:44.725Z,8004
2018-06-13T06:05:45.402Z,8100
2018-06-13T06:06:46.114Z,8188
2018-06-13T06:07:46.792Z,8088
2018-06-13T06:08:47.465Z,7844
2018-06-13T06:09:48.139Z,7600
2018-06-13T06:10:48.818Z,7636
2018-06-13T06:11:49.532Z,7884
2018-06-13T06:12:50.207Z,8024
2018-06-13T06:13:50.882Z,7872
2018-06-13T06:14:51.558Z,7588
2018-06-13T06:15:52.234Z,7376
2018-06-13T06:16:52.912Z,7328
2018-06-13T06:17:53.589Z,7404
2018-06-13T06:18:54.264Z,7804
2018-06-13T06:19:54.942Z,8856
2018-06-13T06:20:55.619Z,10028
2018-06-13T06:21:56.296Z,11476
2018-06-13T06:22:56.975Z,11348
2018-06-13T06:23:57.656Z,11328
2018-06-13T06:24:58.329Z,11052
2018-06-13T06:25:59.007Z,11328
2018-06-13T06:26:59.686Z,12152
2018-06-13T06:28:00.363Z,12000
2018-06-13T06:29:01.041Z,12060
2018-06-13T06:30:01.719Z,10648
2018-06-13T06:31:02.435Z,9928
2018-06-13T06:32:03.112Z,9296
2018-06-13T06:33:03.788Z,9304
2018-06-13T06:34:04.465Z,9596
2018-06-13T06:35:05.141Z,9936
2018-06-13T06:36:05.820Z,10372
2018-06-13T06:37:06.499Z,10288
2018-06-13T06:38:07.174Z,9388
2018-06-13T06:39:07.852Z,8696
2018-06-13T06:40:08.535Z,8816
2018-06-13T06:41:09.242Z,8900
2018-06-13T06:42:09.944Z,8728
2018-06-13T06:43:10.596Z,8780
2018-06-13T06:44:11.272Z,9024
2018-06-13T06:45:11.950Z,9096
2018-06-13T06:46:12.626Z,9044
2018-06-13T06:47:13.303Z,8760
2018-06-13T06:48:13.982Z,8440
2018-06-13T06:49:14.658Z,8216
2018-06-13T06:50:15.335Z,8060
2018-06-13T06:51:16.012Z,7972
2018-06-13T06:52:16.688Z,7808
2018-06-13T06:53:17.365Z,7504
2018-06-13T06:54:18.042Z,7240
2018-06-13T06:55:18.719Z,7052
2018-06-13T06:56:19.396Z,6844
2018-06-13T06:57:20.072Z,6668
2018-06-13T06:58:20.749Z,6504
2018-06-13T06:59:21.426Z,6328
2018-06-13T07:00:22.102Z,6392
2018-06-13T07:01:22.780Z,6644
2018-06-13T07:02:23.456Z,6944
2018-06-13T07:03:24.133Z,7156
2018-06-13T07:04:24.811Z,7152
2018-06-13T07:05:25.490Z,7224
2018-06-13T07:06:26.175Z,7076
2018-06-13T07:07:26.845Z,6800
2018-06-13T07:08:27.520Z,6648
2018-06-13T07:09:28.198Z,6568
2018-06-13T07:10:28.875Z,6788
2018-06-13T07:11:29.556Z,6848
2018-06-13T07:12:30.268Z,6916
2018-06-13T07:13:30.944Z,7560
2018-06-13T07:14:31.622Z,8320
2018-06-13T07:15:32.300Z,8736
2018-06-13T07:16:32.976Z,9020
2018-06-13T07:17:33.654Z,9664
2018-06-13T07:18:34.332Z,10336
2018-06-13T07:19:35.009Z,8064
2018-06-13T07:20:35.690Z,6808
2018-06-13T07:21:36.404Z,6260
2018-06-13T07:22:37.079Z,5728
2018-06-13T07:23:37.757Z,5320
2018-06-13T07:24:38.447Z,5176
2018-06-13T07:25:39.114Z,5252
2018-06-13T07:26:39.784Z,5440
2018-06-13T07:27:40.461Z,5608
2018-06-13T07:28:41.140Z,5684
2018-06-13T07:29:41.818Z,5772
2018-06-13T07:30:42.505Z,5724
2018-06-13T07:31:43.183Z,5380
2018-06-13T07:32:43.867Z,5184
2018-06-13T07:33:44.608Z,4900
2018-06-13T07:34:45.228Z,4544
2018-06-13T07:35:45.905Z,4004
2018-06-13T07:36:46.587Z,3512
2018-06-13T07:37:47.260Z,2844
2018-06-13T07:38:47.935Z,2444
2018-06-13T07:39:48.616Z,2376
2018-06-13T07:40:49.296Z,2652
2018-06-13T07:41:49.974Z,3096
2018-06-13T07:42:50.653Z,3544
2018-06-13T07:43:51.331Z,3852
2018-06-13T07:44:52.008Z,3916
2018-06-13T07:45:52.722Z,3920
2018-06-13T07:46:53.398Z,3952
2018-06-13T07:47:54.073Z,3956
2018-06-13T07:48:54.751Z,3920
2018-06-13T07:49:55.426Z,3904
2018-06-13T07:50:56.104Z,3920
2018-06-13T07:51:56.782Z,3956
2018-06-13T07:52:57.456Z,4064
2018-06-13T07:53:58.128Z,4252
2018-06-13T07:54:58.806Z,4536
2018-06-13T07:55:59.485Z,4832
2018-06-13T07:57:00.162Z,5168
2018-06-13T07:58:00.837Z,5452
2018-06-13T07:59:01.514Z,5692
2018-06-13T08:00:02.190Z,5940
2018-06-13T08:01:02.904Z,6216
2018-06-13T08:02:03.578Z,6424
2018-06-13T08:03:04.254Z,6580
2018-06-13T08:04:04.929Z,6756
2018-06-13T08:05:05.605Z,7004
2018-06-13T08:06:06.282Z,7184
2018-06-13T08:07:06.955Z,7316
2018-06-13T08:08:07.632Z,7488
2018-06-13T08:09:08.307Z,7720
2018-06-13T08:10:08.980Z,7884
2018-06-13T08:11:09.655Z,8044
2018-06-13T08:12:10.333Z,8184
2018-06-13T08:13:11.008Z,8176
2018-06-13T08:14:11.689Z,8228
2018-06-13T08:15:12.364Z,8244
2018-06-13T08:16:13.042Z,8220
2018-06-13T08:17:13.717Z,8244
2018-06-13T08:18:14.393Z,8320
2018-06-13T08:19:15.070Z,8264
2018-06-13T08:20:15.746Z,8196
2018-06-13T08:21:16.425Z,8176
2018-06-13T08:22:17.103Z,8160
2018-06-13T08:23:17.778Z,8488
2018-06-13T08:24:18.454Z,8928
2018-06-13T08:25:19.130Z,9468
2018-06-13T08:26:19.808Z,9748
2018-06-13T08:27:20.489Z,9772
2018-06-13T08:28:21.162Z,9420
2018-06-13T08:29:21.839Z,9208
2018-06-13T08:30:22.515Z,9348
2018-06-13T08:31:23.191Z,9604
2018-06-13T08:32:23.870Z,10068
2018-06-13T08:33:24.548Z,10656
2018-06-13T08:34:25.225Z,11072
2018-06-13T08:35:25.903Z,11140
2018-06-13T08:36:26.583Z,10920
2018-06-13T08:37:27.261Z,10712
2018-06-13T08:38:27.941Z,10500
2018-06-13T08:39:28.619Z,10484
2018-06-13T08:40:29.300Z,10732
2018-06-13T08:41:29.979Z,11116
2018-06-13T08:42:30.658Z,11392
2018-06-13T08:43:31.338Z,11192
2018-06-13T08:44:32.015Z,10688
2018-06-13T08:45:32.696Z,10580
2018-06-13T08:46:33.375Z,10084
2018-06-13T08:47:34.055Z,9400
2018-06-13T08:48:34.768Z,8872
2018-06-13T08:49:35.409Z,8000
2018-06-13T08:50:36.086Z,7272
2018-06-13T08:51:36.763Z,6272
2018-06-13T08:52:37.494Z,5408
2018-06-13T08:53:38.128Z,4928
2018-06-13T08:54:38.810Z,4852
2018-06-13T08:55:39.490Z,4968
2018-06-13T08:56:40.165Z,5156
2018-06-13T08:57:40.840Z,5388
2018-06-13T08:58:41.518Z,5476
2018-06-13T08:59:42.196Z,5628
2018-06-13T09:00:42.872Z,5720
2018-06-13T09:01:43.550Z,5584
2018-06-13T09:02:44.229Z,5288
2018-06-13T09:03:44.905Z,5172
2018-06-13T09:04:45.582Z,5216
2018-06-13T09:05:46.261Z,5148
2018-06-13T09:06:46.939Z,5272
2018-06-13T09:07:47.618Z,5500
2018-06-13T09:08:48.294Z,5648
2018-06-13T09:09:48.973Z,5684
2018-06-13T09:10:49.650Z,5600
2018-06-13T09:11:50.328Z,5500
2018-06-13T09:12:51.006Z,5616
2018-06-13T09:13:51.688Z,5736
2018-06-13T09:14:52.369Z,5992
2018-06-13T09:15:53.038Z,5992
2018-06-13T09:16:53.716Z,6208
2018-06-13T09:17:54.391Z,6416
2018-06-13T09:18:55.066Z,6648
2018-06-13T09:19:55.744Z,7008
2018-06-13T09:20:56.420Z,7448
2018-06-13T09:21:57.134Z,7776
2018-06-13T09:22:57.815Z,7924
2018-06-13T09:23:58.490Z,8056
2018-06-13T09:24:59.167Z,8228
2018-06-13T09:25:59.844Z,8228
2018-06-13T09:27:00.526Z,8168
2018-06-13T09:28:01.248Z,8188
2018-06-13T09:29:01.924Z,8148
2018-06-13T09:30:02.602Z,8252
2018-06-13T09:31:03.278Z,8308
2018-06-13T09:32:03.956Z,8300
2018-06-13T09:33:04.632Z,8332
2018-06-13T09:34:05.307Z,8440
2018-06-13T09:35:05.985Z,8412
2018-06-13T09:36:06.713Z,8252
2018-06-13T09:37:07.393Z,7936
2018-06-13T09:38:08.103Z,7556
2018-06-13T09:39:08.781Z,7180
2018-06-13T09:40:09.496Z,6936
2018-06-13T09:41:10.179Z,6856
2018-06-13T09:42:10.894Z,6860
2018-06-13T09:43:11.572Z,6944
2018-06-13T09:44:12.249Z,7112
2018-06-13T09:45:12.928Z,7300
2018-06-13T09:46:13.605Z,7524
2018-06-13T09:47:15.131Z,7840
2018-06-13T09:48:14.959Z,8148
2018-06-13T09:49:15.637Z,8336
2018-06-13T09:50:16.316Z,8496
2018-06-13T09:51:16.993Z,8356
2018-06-13T09:52:17.670Z,8012
2018-06-13T09:53:18.350Z,7672
2018-06-13T09:54:19.027Z,7108
2018-06-13T09:55:19.705Z,6352
2018-06-13T09:56:20.387Z,5704
2018-06-13T09:57:21.060Z,5212
2018-06-13T09:58:21.737Z,4856
2018-06-13T09:59:22.413Z,4660
2018-06-13T10:00:23.089Z,4576
2018-06-13T10:01:23.767Z,4560
2018-06-13T10:02:24.445Z,4600
2018-06-13T10:03:25.121Z,4652
2018-06-13T10:04:25.798Z,4800
2018-06-13T10:05:26.517Z,4968
2018-06-13T10:06:27.226Z,5144
2018-06-13T10:07:27.903Z,5332
2018-06-13T10:08:28.589Z,5508
2018-06-13T10:09:29.256Z,5704
2018-06-13T10:10:29.935Z,5944
2018-06-13T10:11:30.609Z,6112
2018-06-13T10:12:31.285Z,6232
2018-06-13T10:13:31.963Z,6372
2018-06-13T10:14:32.639Z,6592
2018-06-13T10:15:33.319Z,6768
2018-06-13T10:16:33.992Z,6836
2018-06-13T10:17:34.668Z,6724
2018-06-13T10:18:35.369Z,6536
2018-06-13T10:19:36.028Z,6480
2018-06-13T10:20:36.699Z,6544
2018-06-13T10:21:37.374Z,6740
2018-06-13T10:22:38.051Z,7012
2018-06-13T10:23:38.763Z,7228
2018-06-13T10:24:39.441Z,7320
2018-06-13T10:25:40.119Z,7364
2018-06-13T10:26:40.869Z,7392
2018-06-13T10:27:41.519Z,7624
2018-06-13T10:28:42.196Z,7960
2018-06-13T10:29:42.878Z,8180
2018-06-13T10:30:43.549Z,8288
2018-06-13T10:31:44.226Z,8328
2018-06-13T10:32:44.902Z,8376
2018-06-13T10:33:45.578Z,8492
2018-06-13T10:34:46.257Z,8592
2018-06-13T10:35:46.934Z,8708
2018-06-13T10:36:47.615Z,8700
2018-06-13T10:37:48.325Z,8656
2018-06-13T10:38:49.002Z,8564
2018-06-13T10:39:49.678Z,8436
2018-06-13T10:40:50.355Z,8256
2018-06-13T10:41:51.033Z,8072
2018-06-13T10:42:51.746Z,8080
2018-06-13T10:43:52.423Z,8276
2018-06-13T10:44:53.099Z,8480
2018-06-13T10:45:53.775Z,8604
2018-06-13T10:46:54.504Z,8672
2018-06-13T10:47:55.183Z,8832
2018-06-13T10:48:55.856Z,9012
2018-06-13T10:49:56.533Z,9248
2018-06-13T10:50:57.211Z,9520
2018-06-13T10:51:57.887Z,9704
2018-06-13T10:52:58.564Z,9848
2018-06-13T10:53:59.245Z,9816
2018-06-13T10:54:59.919Z,9588
2018-06-13T10:56:00.595Z,9216
2018-06-13T10:57:01.273Z,8656
2018-06-13T10:58:01.949Z,7988
2018-06-13T10:59:02.627Z,7492
2018-06-13T11:00:03.304Z,7344
2018-06-13T11:01:03.981Z,7312
2018-06-13T11:02:04.700Z,7140
2018-06-13T11:03:05.376Z,6728
2018-06-13T11:04:06.044Z,6092
2018-06-13T11:05:06.721Z,5428
2018-06-13T11:06:07.397Z,4884
2018-06-13T11:07:08.114Z,4488
2018-06-13T11:08:08.789Z,4240
2018-06-13T11:09:09.468Z,4132
2018-06-13T11:10:10.146Z,4196
2018-06-13T11:11:10.822Z,4320
2018-06-13T11:12:11.500Z,4456
2018-06-13T11:13:12.216Z,4608
2018-06-13T11:14:12.891Z,4704
2018-06-13T11:15:13.571Z,4728
2018-06-13T11:16:14.247Z,4776
2018-06-13T11:17:14.926Z,4916
2018-06-13T11:18:15.601Z,5092
2018-06-13T11:19:16.278Z,5216
2018-06-13T11:20:16.960Z,5248
2018-06-13T11:21:17.635Z,5240
2018-06-13T11:22:18.308Z,5184
2018-06-13T11:23:19.023Z,5144
2018-06-13T11:24:19.699Z,5136
2018-06-13T11:25:20.374Z,5200
2018-06-13T11:26:21.053Z,5340
2018-06-13T11:27:21.732Z,5552
2018-06-13T11:28:22.403Z,5632
2018-06-13T11:29:23.079Z,5636
2018-06-13T11:30:23.758Z,5692
2018-06-13T11:31:24.461Z,5656
2018-06-13T11:32:25.111Z,5656
2018-06-13T11:33:25.827Z,5676
2018-06-13T11:34:26.464Z,5816
2018-06-13T11:35:27.178Z,6040
2018-06-13T11:36:27.856Z,6240
2018-06-13T11:37:28.570Z,6364
2018-06-13T11:38:29.247Z,6500
2018-06-13T11:39:29.925Z,6840
2018-06-13T11:40:30.601Z,7120
2018-06-13T11:41:31.347Z,7288
2018-06-13T11:42:31.955Z,7264
2018-06-13T11:43:32.632Z,7184
2018-06-13T11:44:33.309Z,7100
2018-06-13T11:45:33.986Z,7260
2018-06-13T11:46:34.660Z,7488
2018-06-13T11:47:35.336Z,7752
2018-06-13T11:48:36.013Z,7900
2018-06-13T11:49:36.690Z,7676
2018-06-13T11:50:37.365Z,7528
2018-06-13T11:51:38.043Z,7280
2018-06-13T11:52:38.719Z,7116
2018-06-13T11:53:39.426Z,7236
2018-06-13T11:54:40.076Z,7560
2018-06-13T11:55:40.752Z,7848
2018-06-13T11:56:41.431Z,8180
2018-06-13T11:57:42.102Z,8496
2018-06-13T11:58:42.784Z,8636
2018-06-13T11:59:43.459Z,8432
2018-06-13T12:00:44.140Z,8260
2018-06-13T12:01:44.864Z,8332
2018-06-13T12:02:45.490Z,8552
2018-06-13T12:03:46.169Z,8872
2018-06-13T12:04:46.846Z,9160
2018-06-13T12:05:47.524Z,9428
2018-06-13T12:06:48.200Z,9644
2018-06-13T12:07:48.877Z,9656
2018-06-13T12:08:49.554Z,9464
2018-06-13T12:09:50.232Z,9400
2018-06-13T12:10:50.949Z,9496
2018-06-13T12:11:51.625Z,9856
2018-06-13T12:12:52.301Z,9948
2018-06-13T12:13:52.979Z,9384
2018-06-13T12:14:53.658Z,8368
2018-06-13T12:15:54.336Z,7712
2018-06-13T12:16:55.059Z,7336
2018-06-13T12:17:55.689Z,7292
2018-06-13T12:18:56.395Z,7424
2018-06-13T12:19:57.083Z,7612
2018-06-13T12:20:57.762Z,7656
2018-06-13T12:21:58.438Z,7780
2018-06-13T12:22:59.117Z,8244
2018-06-13T12:23:59.793Z,8864
2018-06-13T12:25:00.508Z,9380
2018-06-13T12:26:01.222Z,9464
2018-06-13T12:27:01.900Z,9460
2018-06-13T12:28:02.577Z,9264
2018-06-13T12:29:03.254Z,9104
2018-06-13T12:30:03.931Z,9000
2018-06-13T12:31:04.611Z,8852
2018-06-13T12:32:05.325Z,8652
2018-06-13T12:33:06.010Z,8400
2018-06-13T12:34:06.722Z,8092
2018-06-13T12:35:07.399Z,7796
2018-06-13T12:36:08.077Z,7568
2018-06-13T12:37:08.793Z,7376
2018-06-13T12:38:09.472Z,7228
2018-06-13T12:39:10.149Z,7020
2018-06-13T12:40:10.883Z,6752
2018-06-13T12:41:11.501Z,6448
2018-06-13T12:42:12.179Z,6208
2018-06-13T12:43:12.855Z,6000
2018-06-13T12:44:13.537Z,5900
2018-06-13T12:45:14.210Z,5816
2018-06-13T12:46:14.887Z,5716
2018-06-13T12:47:15.565Z,5604
2018-06-13T12:48:16.241Z,5552
2018-06-13T12:49:16.916Z,5560
2018-06-13T12:50:17.596Z,5564
2018-06-13T12:51:18.273Z,5636
2018-06-13T12:52:18.950Z,5736
2018-06-13T12:53:19.627Z,5848
2018-06-13T12:54:20.303Z,5956
2018-06-13T12:55:20.980Z,6100
2018-06-13T12:56:21.659Z,6264
2018-06-13T12:57:22.336Z,6484
2018-06-13T12:58:23.052Z,6664
2018-06-13T12:59:23.728Z,6788
2018-06-13T13:00:24.403Z,6844
2018-06-13T13:01:25.082Z,6836
2018-06-13T13:02:25.757Z,6768
2018-06-13T13:03:26.434Z,6644
2018-06-13T13:04:27.112Z,6532
2018-06-13T13:05:27.791Z,6480
2018-06-13T13:06:28.504Z,6504
2018-06-13T13:07:29.185Z,6548
2018-06-13T13:08:29.856Z,6472
2018-06-13T13:09:30.533Z,6028
2018-06-13T13:10:31.210Z,5516
2018-06-13T13:11:31.897Z,5140
2018-06-13T13:12:32.601Z,4928
2018-06-13T13:13:33.280Z,4872
2018-06-13T13:14:33.955Z,4860
2018-06-13T13:15:34.632Z,4824
2018-06-13T13:16:35.308Z,4900
2018-06-13T13:17:35.984Z,5252
2018-06-13T13:18:36.663Z,5708
2018-06-13T13:19:37.342Z,5996
2018-06-13T13:20:38.016Z,6300
2018-06-13T13:21:38.695Z,6456
2018-06-13T13:22:39.369Z,6540
2018-06-13T13:23:40.044Z,6400
2018-06-13T13:24:40.722Z,6136
2018-06-13T13:25:41.398Z,5660
2018-06-13T13:26:42.075Z,5032
2018-06-13T13:27:42.752Z,4656
2018-06-13T13:28:43.429Z,4644
2018-06-13T13:29:44.107Z,4860
2018-06-13T13:30:44.826Z,5156
2018-06-13T13:31:45.536Z,5520
2018-06-13T13:32:46.213Z,5660
2018-06-13T13:33:46.888Z,5552
2018-06-13T13:34:47.564Z,5288
2018-06-13T13:35:48.320Z,5240
2018-06-13T13:36:48.957Z,5464
2018-06-13T13:37:49.633Z,5668
2018-06-13T13:38:50.310Z,5444
2018-06-13T13:39:50.989Z,5272
2018-06-13T13:40:51.661Z,5476
2018-06-13T13:41:52.338Z,5860
2018-06-13T13:42:53.016Z,5952
2018-06-13T13:43:53.741Z,5624
2018-06-13T13:44:54.420Z,5348
2018-06-13T13:45:55.186Z,5332
2018-06-13T13:46:55.776Z,5328
2018-06-13T13:47:56.451Z,5236
2018-06-13T13:48:57.127Z,4940